SAS295 EFTU-ESSA
Flight info
| Callsign | SAS295 |
|---|---|
| Flight time | 0h 36m |
| Altitude | 28000 |
| Route | LIVLU DCT RUNGA N872 XILAN |
| Aircraft | A20N/M-SDE2E3FGHIRWXY/LB1 |
Departure
| Time | 2026-05-05 13:46 |
|---|---|
| Airport | Turku Airport (EFTU) |
Arrival
| Time | 2026-05-05 14:23 |
|---|---|
| Airport | Stockholm-Arlanda Airport (ESSA) |
| Time | Latitude | Longitude | Altitude | Speed | Heading |
|---|---|---|---|---|---|
| 2026-05-05 13:27 | 60.51129 | 22.27286 | 148 ft | 0 kts | 149° |
| 2026-05-05 13:41 | 60.51127 | 22.27289 | 148 ft | 0 kts | 148° |
| 2026-05-05 13:41 | 60.51123 | 22.27283 | 148 ft | 1 kts | 200° |
| 2026-05-05 13:41 | 60.51124 | 22.27268 | 148 ft | 1 kts | 269° |
| 2026-05-05 13:42 | 60.51134 | 22.27250 | 148 ft | 2 kts | 334° |
| 2026-05-05 13:42 | 60.51163 | 22.27227 | 148 ft | 6 kts | 338° |
| 2026-05-05 13:42 | 60.51217 | 22.27220 | 148 ft | 9 kts | 11° |
| 2026-05-05 13:42 | 60.51279 | 22.27289 | 148 ft | 12 kts | 27° |
| 2026-05-05 13:43 | 60.51338 | 22.27423 | 149 ft | 14 kts | 72° |
| 2026-05-05 13:43 | 60.51351 | 22.27641 | 149 ft | 17 kts | 85° |
| 2026-05-05 13:43 | 60.51381 | 22.27827 | 149 ft | 0 kts | 42° |
| 2026-05-05 13:44 | 60.51389 | 22.27837 | 149 ft | 3 kts | 32° |
| 2026-05-05 13:44 | 60.51424 | 22.27859 | 149 ft | 7 kts | 5° |
| 2026-05-05 13:44 | 60.51464 | 22.27860 | 149 ft | 2 kts | 341° |
| 2026-05-05 13:44 | 60.51476 | 22.27831 | 149 ft | 3 kts | 291° |
| 2026-05-05 13:45 | 60.51477 | 22.27814 | 149 ft | 0 kts | 276° |
| 2026-05-05 13:45 | 60.51476 | 22.27713 | 150 ft | 32 kts | 266° |
| 2026-05-05 13:45 | 60.51436 | 22.26778 | 146 ft | 97 kts | 265° |
| 2026-05-05 13:45 | 60.51361 | 22.25076 | 162 ft | 142 kts | 263° |
| 2026-05-05 13:46 | 60.51278 | 22.23147 | 756 ft | 135 kts | 264° |
| 2026-05-05 13:46 | 60.51221 | 22.21238 | 1482 ft | 135 kts | 267° |
| 2026-05-05 13:46 | 60.51211 | 22.19360 | 2118 ft | 132 kts | 272° |
| 2026-05-05 13:46 | 60.51236 | 22.17506 | 2630 ft | 135 kts | 266° |
| 2026-05-05 13:47 | 60.51007 | 22.15583 | 3097 ft | 148 kts | 256° |
| 2026-05-05 13:47 | 60.50708 | 22.13454 | 3561 ft | 166 kts | 258° |
| 2026-05-05 13:47 | 60.50357 | 22.11071 | 4070 ft | 187 kts | 251° |
| 2026-05-05 13:47 | 60.49794 | 22.08563 | 4691 ft | 204 kts | 248° |
| 2026-05-05 13:48 | 60.49161 | 22.05837 | 5258 ft | 225 kts | 247° |
| 2026-05-05 13:48 | 60.48468 | 22.02929 | 6165 ft | 229 kts | 246° |
| 2026-05-05 13:48 | 60.47740 | 21.99947 | 6869 ft | 246 kts | 246° |
| 2026-05-05 13:48 | 60.46967 | 21.96813 | 7672 ft | 255 kts | 246° |
| 2026-05-05 13:49 | 60.46162 | 21.93582 | 8747 ft | 258 kts | 246° |
| 2026-05-05 13:49 | 60.45346 | 21.90312 | 9796 ft | 261 kts | 246° |
| 2026-05-05 13:49 | 60.44513 | 21.86965 | 10543 ft | 275 kts | 246° |
| 2026-05-05 13:49 | 60.43624 | 21.83387 | 11060 ft | 293 kts | 245° |
| 2026-05-05 13:50 | 60.42685 | 21.79628 | 11815 ft | 301 kts | 245° |
| 2026-05-05 13:50 | 60.41743 | 21.75874 | 12982 ft | 296 kts | 244° |
| 2026-05-05 13:50 | 60.40816 | 21.72181 | 14087 ft | 293 kts | 244° |
| 2026-05-05 13:50 | 60.39894 | 21.68512 | 15015 ft | 293 kts | 244° |
| 2026-05-05 13:51 | 60.38968 | 21.64834 | 15897 ft | 293 kts | 244° |
| 2026-05-05 13:51 | 60.38042 | 21.61160 | 16787 ft | 294 kts | 244° |
| 2026-05-05 13:51 | 60.37111 | 21.57472 | 17666 ft | 294 kts | 245° |
| 2026-05-05 13:51 | 60.36179 | 21.53782 | 18485 ft | 295 kts | 245° |
| 2026-05-05 13:52 | 60.35240 | 21.50070 | 19154 ft | 299 kts | 245° |
| 2026-05-05 13:52 | 60.34261 | 21.46335 | 19789 ft | 303 kts | 242° |
| 2026-05-05 13:52 | 60.33113 | 21.42728 | 20437 ft | 308 kts | 239° |
| 2026-05-05 13:52 | 60.31913 | 21.39113 | 21091 ft | 311 kts | 239° |
| 2026-05-05 13:53 | 60.30721 | 21.35507 | 21709 ft | 315 kts | 239° |
| 2026-05-05 13:53 | 60.29503 | 21.31815 | 22351 ft | 318 kts | 239° |
| 2026-05-05 13:53 | 60.28268 | 21.28079 | 22989 ft | 322 kts | 239° |
| 2026-05-05 13:53 | 60.27014 | 21.24290 | 23561 ft | 326 kts | 238° |
| 2026-05-05 13:54 | 60.25748 | 21.20477 | 24103 ft | 328 kts | 238° |
| 2026-05-05 13:54 | 60.24473 | 21.16642 | 24637 ft | 331 kts | 238° |
| 2026-05-05 13:54 | 60.23184 | 21.12772 | 25156 ft | 334 kts | 238° |
| 2026-05-05 13:54 | 60.21884 | 21.08875 | 25656 ft | 336 kts | 238° |
| 2026-05-05 13:55 | 60.20571 | 21.04944 | 26149 ft | 339 kts | 238° |
| 2026-05-05 13:55 | 60.19249 | 21.00995 | 26633 ft | 342 kts | 238° |
| 2026-05-05 13:55 | 60.17916 | 20.97018 | 27103 ft | 345 kts | 238° |
| 2026-05-05 13:55 | 60.16569 | 20.93009 | 27558 ft | 347 kts | 238° |
| 2026-05-05 13:56 | 60.15212 | 20.88974 | 27800 ft | 350 kts | 238° |
| 2026-05-05 13:56 | 60.13848 | 20.84927 | 27837 ft | 350 kts | 238° |
| 2026-05-05 13:56 | 60.12482 | 20.80881 | 27837 ft | 349 kts | 238° |
| 2026-05-05 13:56 | 60.11135 | 20.76899 | 27842 ft | 350 kts | 238° |
| 2026-05-05 13:57 | 60.09769 | 20.72866 | 27841 ft | 350 kts | 238° |
| 2026-05-05 13:57 | 60.08401 | 20.68834 | 27843 ft | 350 kts | 238° |
| 2026-05-05 13:57 | 60.07032 | 20.64808 | 27843 ft | 350 kts | 238° |
| 2026-05-05 13:57 | 60.05662 | 20.60784 | 27843 ft | 350 kts | 238° |
| 2026-05-05 13:58 | 60.04291 | 20.56764 | 27844 ft | 350 kts | 238° |
| 2026-05-05 13:58 | 60.02916 | 20.52740 | 27842 ft | 350 kts | 238° |
| 2026-05-05 13:58 | 60.01538 | 20.48715 | 27845 ft | 350 kts | 238° |
| 2026-05-05 13:58 | 60.00162 | 20.44702 | 27845 ft | 350 kts | 238° |
| 2026-05-05 13:59 | 59.97406 | 20.36682 | 27847 ft | 351 kts | 238° |
| 2026-05-05 13:59 | 59.96023 | 20.32668 | 27847 ft | 351 kts | 238° |
| 2026-05-05 14:00 | 59.93275 | 20.24716 | 27849 ft | 351 kts | 238° |
| 2026-05-05 14:00 | 59.92337 | 20.22006 | 27846 ft | 351 kts | 238° |
| 2026-05-05 14:00 | 59.90966 | 20.18051 | 27848 ft | 351 kts | 238° |
| 2026-05-05 14:00 | 59.89110 | 20.12710 | 27814 ft | 351 kts | 238° |
| 2026-05-05 14:01 | 59.87718 | 20.08711 | 27571 ft | 351 kts | 238° |
| 2026-05-05 14:01 | 59.86794 | 20.06063 | 27381 ft | 349 kts | 238° |
| 2026-05-05 14:01 | 59.85415 | 20.02114 | 27106 ft | 347 kts | 238° |
| 2026-05-05 14:01 | 59.84035 | 19.98169 | 26564 ft | 346 kts | 238° |
| 2026-05-05 14:02 | 59.82685 | 19.94240 | 26002 ft | 342 kts | 242° |
| 2026-05-05 14:02 | 59.81784 | 19.89949 | 25571 ft | 334 kts | 252° |
| 2026-05-05 14:02 | 59.81083 | 19.85578 | 25056 ft | 330 kts | 251° |
| 2026-05-05 14:02 | 59.80386 | 19.81268 | 24531 ft | 326 kts | 251° |
| 2026-05-05 14:03 | 59.79697 | 19.77010 | 24012 ft | 322 kts | 251° |
| 2026-05-05 14:03 | 59.79015 | 19.72807 | 23500 ft | 318 kts | 251° |
| 2026-05-05 14:03 | 59.78340 | 19.68661 | 22956 ft | 313 kts | 251° |
| 2026-05-05 14:03 | 59.77676 | 19.64589 | 22460 ft | 307 kts | 251° |
| 2026-05-05 14:04 | 59.77021 | 19.60584 | 21985 ft | 301 kts | 251° |
| 2026-05-05 14:04 | 59.76369 | 19.56681 | 21520 ft | 296 kts | 250° |
| 2026-05-05 14:04 | 59.75593 | 19.52804 | 21035 ft | 312 kts | 248° |
| 2026-05-05 14:04 | 59.74755 | 19.48817 | 20515 ft | 311 kts | 248° |
| 2026-05-05 14:05 | 59.73919 | 19.44888 | 20012 ft | 308 kts | 248° |
| 2026-05-05 14:05 | 59.73097 | 19.41049 | 19501 ft | 305 kts | 248° |
| 2026-05-05 14:05 | 59.72263 | 19.37197 | 19031 ft | 303 kts | 248° |
| 2026-05-05 14:05 | 59.71431 | 19.33386 | 18553 ft | 300 kts | 248° |
| 2026-05-05 14:06 | 59.70598 | 19.29607 | 17996 ft | 298 kts | 248° |
| 2026-05-05 14:06 | 59.69766 | 19.25870 | 17342 ft | 295 kts | 248° |
| 2026-05-05 14:06 | 59.68936 | 19.22158 | 16805 ft | 294 kts | 248° |
| 2026-05-05 14:06 | 59.68105 | 19.18446 | 16271 ft | 295 kts | 248° |
| 2026-05-05 14:07 | 59.67267 | 19.14718 | 15773 ft | 297 kts | 248° |
| 2026-05-05 14:07 | 59.66428 | 19.10992 | 15259 ft | 296 kts | 248° |
| 2026-05-05 14:07 | 59.65593 | 19.07289 | 14758 ft | 294 kts | 248° |
| 2026-05-05 14:07 | 59.64757 | 19.03590 | 14258 ft | 294 kts | 248° |
| 2026-05-05 14:08 | 59.63931 | 18.99939 | 13781 ft | 295 kts | 248° |
| 2026-05-05 14:08 | 59.63091 | 18.96234 | 13246 ft | 295 kts | 248° |
| 2026-05-05 14:08 | 59.62248 | 18.92504 | 12695 ft | 298 kts | 248° |
| 2026-05-05 14:08 | 59.61411 | 18.88793 | 12149 ft | 292 kts | 248° |
| 2026-05-05 14:09 | 59.60596 | 18.85180 | 11618 ft | 283 kts | 248° |
| 2026-05-05 14:09 | 59.59809 | 18.81685 | 11086 ft | 275 kts | 248° |
| 2026-05-05 14:09 | 59.59050 | 18.78305 | 10701 ft | 264 kts | 248° |
| 2026-05-05 14:09 | 59.58321 | 18.75046 | 10321 ft | 259 kts | 248° |
| 2026-05-05 14:10 | 59.57585 | 18.71738 | 9944 ft | 265 kts | 248° |
| 2026-05-05 14:10 | 59.56846 | 18.68403 | 9550 ft | 264 kts | 248° |
| 2026-05-05 14:10 | 59.56111 | 18.65085 | 9145 ft | 265 kts | 248° |
| 2026-05-05 14:10 | 59.55375 | 18.61755 | 8725 ft | 264 kts | 248° |
| 2026-05-05 14:11 | 59.54639 | 18.58443 | 8314 ft | 262 kts | 248° |
| 2026-05-05 14:11 | 59.53922 | 18.55222 | 7921 ft | 260 kts | 248° |
| 2026-05-05 14:11 | 59.53203 | 18.51997 | 7532 ft | 259 kts | 248° |
| 2026-05-05 14:11 | 59.52476 | 18.48748 | 7142 ft | 259 kts | 248° |
| 2026-05-05 14:12 | 59.51747 | 18.45503 | 6741 ft | 258 kts | 248° |
| 2026-05-05 14:12 | 59.51021 | 18.42281 | 6360 ft | 257 kts | 248° |
| 2026-05-05 14:12 | 59.50294 | 18.39082 | 5994 ft | 254 kts | 248° |
| 2026-05-05 14:12 | 59.49572 | 18.35922 | 5644 ft | 252 kts | 248° |
| 2026-05-05 14:13 | 59.48852 | 18.32784 | 5303 ft | 250 kts | 248° |
| 2026-05-05 14:13 | 59.48134 | 18.29684 | 4971 ft | 248 kts | 248° |
| 2026-05-05 14:13 | 59.47421 | 18.26592 | 4616 ft | 247 kts | 248° |
| 2026-05-05 14:13 | 59.46713 | 18.23534 | 4280 ft | 246 kts | 248° |
| 2026-05-05 14:14 | 59.46011 | 18.20500 | 4045 ft | 239 kts | 248° |
| 2026-05-05 14:14 | 59.45338 | 18.17605 | 4001 ft | 225 kts | 248° |
| 2026-05-05 14:14 | 59.44710 | 18.14922 | 4005 ft | 213 kts | 248° |
| 2026-05-05 14:14 | 59.44107 | 18.12339 | 4000 ft | 201 kts | 248° |
| 2026-05-05 14:15 | 59.43530 | 18.09903 | 3999 ft | 196 kts | 248° |
| 2026-05-05 14:15 | 59.42998 | 18.07429 | 3999 ft | 195 kts | 252° |
| 2026-05-05 14:15 | 59.42540 | 18.04920 | 4005 ft | 195 kts | 252° |
| 2026-05-05 14:15 | 59.42083 | 18.02409 | 3998 ft | 195 kts | 252° |
| 2026-05-05 14:16 | 59.41626 | 17.99904 | 4007 ft | 195 kts | 252° |
| 2026-05-05 14:16 | 59.41165 | 17.97395 | 4000 ft | 194 kts | 252° |
| 2026-05-05 14:16 | 59.40711 | 17.94898 | 4007 ft | 195 kts | 254° |
| 2026-05-05 14:16 | 59.40347 | 17.92341 | 4000 ft | 194 kts | 257° |
| 2026-05-05 14:17 | 59.40084 | 17.89765 | 3996 ft | 192 kts | 273° |
| 2026-05-05 14:17 | 59.40573 | 17.87405 | 3937 ft | 189 kts | 316° |
| 2026-05-05 14:17 | 59.41766 | 17.86574 | 3842 ft | 188 kts | 4° |
| 2026-05-05 14:17 | 59.43017 | 17.87425 | 3774 ft | 194 kts | 18° |
| 2026-05-05 14:18 | 59.44269 | 17.88312 | 3666 ft | 188 kts | 11° |
| 2026-05-05 14:18 | 59.45537 | 17.88917 | 3591 ft | 187 kts | 7° |
| 2026-05-05 14:18 | 59.46798 | 17.89372 | 3365 ft | 185 kts | 5° |
| 2026-05-05 14:18 | 59.48082 | 17.89832 | 3136 ft | 186 kts | 5° |
| 2026-05-05 14:19 | 59.49332 | 17.90277 | 2884 ft | 184 kts | 6° |
| 2026-05-05 14:19 | 59.50588 | 17.90731 | 2626 ft | 184 kts | 6° |
| 2026-05-05 14:19 | 59.51842 | 17.91181 | 2394 ft | 180 kts | 6° |
| 2026-05-05 14:19 | 59.53088 | 17.91628 | 2139 ft | 184 kts | 6° |
| 2026-05-05 14:20 | 59.54323 | 17.92076 | 1879 ft | 174 kts | 6° |
| 2026-05-05 14:20 | 59.55459 | 17.92486 | 1650 ft | 159 kts | 5° |
| 2026-05-05 14:20 | 59.56560 | 17.92878 | 1425 ft | 160 kts | 5° |
| 2026-05-05 14:20 | 59.57614 | 17.93264 | 1212 ft | 147 kts | 5° |
| 2026-05-05 14:21 | 59.58572 | 17.93609 | 1009 ft | 134 kts | 5° |
| 2026-05-05 14:21 | 59.59452 | 17.93929 | 816 ft | 127 kts | 4° |
| 2026-05-05 14:21 | 59.60356 | 17.94248 | 640 ft | 131 kts | 4° |
| 2026-05-05 14:21 | 59.61247 | 17.94573 | 467 ft | 132 kts | 3° |
| 2026-05-05 14:22 | 59.62154 | 17.94882 | 277 ft | 133 kts | 6° |
| 2026-05-05 14:22 | 59.63026 | 17.95237 | 136 ft | 122 kts | 360° |
| 2026-05-05 14:22 | 59.63714 | 17.95459 | 115 ft | 75 kts | 14° |
| 2026-05-05 14:22 | 59.64114 | 17.95510 | 109 ft | 52 kts | 353° |
| 2026-05-05 14:23 | 59.64342 | 17.95377 | 106 ft | 10 kts | 342° |
| 2026-05-05 14:23 | 59.64345 | 17.95376 | 106 ft | 0 kts | 342° |
| 2026-05-05 14:23 | 59.64357 | 17.95369 | 106 ft | 9 kts | 343° |
| 2026-05-05 14:23 | 59.64492 | 17.95342 | 104 ft | 27 kts | 5° |
| 2026-05-05 14:24 | 59.64694 | 17.95412 | 105 ft | 31 kts | 10° |
| 2026-05-05 14:24 | 59.64906 | 17.95490 | 108 ft | 31 kts | 9° |
| 2026-05-05 14:24 | 59.65110 | 17.95479 | 117 ft | 28 kts | 348° |
| 2026-05-05 14:24 | 59.65290 | 17.95380 | 125 ft | 25 kts | 344° |
| 2026-05-05 14:25 | 59.65456 | 17.95293 | 127 ft | 25 kts | 346° |
| 2026-05-05 14:25 | 59.65631 | 17.95202 | 126 ft | 26 kts | 344° |
| 2026-05-05 14:25 | 59.65732 | 17.95019 | 124 ft | 20 kts | 273° |
| 2026-05-05 14:25 | 59.65711 | 17.94736 | 123 ft | 21 kts | 257° |
| 2026-05-05 14:26 | 59.65677 | 17.94443 | 124 ft | 22 kts | 256° |
| 2026-05-05 14:26 | 59.65637 | 17.94137 | 121 ft | 25 kts | 256° |
| 2026-05-05 14:26 | 59.65593 | 17.93772 | 113 ft | 29 kts | 256° |
| 2026-05-05 14:26 | 59.65541 | 17.93373 | 111 ft | 30 kts | 256° |
| 2026-05-05 14:27 | 59.65497 | 17.93030 | 110 ft | 20 kts | 255° |
| 2026-05-05 14:27 | 59.65449 | 17.92759 | 111 ft | 21 kts | 243° |
| 2026-05-05 14:27 | 59.65353 | 17.92728 | 111 ft | 12 kts | 136° |
| 2026-05-05 14:27 | 59.65271 | 17.92802 | 111 ft | 15 kts | 153° |
| 2026-05-05 14:28 | 59.65195 | 17.92908 | 111 ft | 9 kts | 121° |
| 2026-05-05 14:28 | 59.65193 | 17.92983 | 111 ft | 2 kts | 74° |
| 2026-05-05 14:28 | 59.65200 | 17.93025 | 111 ft | 0 kts | 72° |